Time;durP1;ratioP1;P1;durP2;ratioP2;P2;SDS_P1;SDS_P2;PMS_P1;PMS_P2;Temp;Humidity;BMP_temperature;BMP_pressure;BME280_temperature;BME280_humidity;BME280_pressure;Samples;Min_cycle;Max_cycle;Signal;HPM_P1;HPM_P2
2023/02/24 00:00:32;;;;;;;38.37;7.13;;;7.80;99.90;;;;;;5194472;22;20692;-92
2023/02/24 00:02:33;;;;;;;32.97;6.93;;;7.70;99.90;;;;;;5194656;22;20703;-91
2023/02/24 00:04:38;;;;;;;48.37;7.43;;;7.80;99.90;;;;;;5194748;22;20150;-94
2023/02/24 00:06:42;;;;;;;29.53;6.63;;;7.90;99.90;;;;;;5220291;22;20154;-91
2023/02/24 00:08:43;;;;;;;33.43;7.07;;;8.00;99.90;;;;;;5220354;22;20154;-96
2023/02/24 00:10:44;;;;;;;39.77;7.37;;;8.00;99.90;;;;;;5194616;22;20174;-95
2023/02/24 00:12:48;;;;;;;38.77;7.03;;;8.10;99.90;;;;;;5194589;22;20559;-93
2023/02/24 00:14:48;;;;;;;27.30;6.53;;;7.90;99.90;;;;;;5194619;22;20154;-92
2023/02/24 00:16:50;;;;;;;36.40;6.27;;;7.80;99.90;;;;;;5194468;22;20559;-93
2023/02/24 00:18:51;;;;;;;42.13;7.43;;;7.90;99.90;;;;;;5194473;22;20178;-95
2023/02/24 00:20:55;;;;;;;34.43;5.83;;;7.80;99.90;;;;;;5220245;22;20184;-93
2023/02/24 00:22:56;;;;;;;35.57;7.17;;;8.00;99.90;;;;;;5220043;22;20169;-95
2023/02/24 00:25:01;;;;;;;41.87;8.07;;;8.10;99.90;;;;;;5220069;22;20240;-93
2023/02/24 00:27:06;;;;;;;34.63;6.63;;;8.00;99.90;;;;;;5194573;22;20300;-94
2023/02/24 00:29:10;;;;;;;35.37;6.67;;;8.10;99.90;;;;;;5194400;22;20153;-94
2023/02/24 00:31:14;;;;;;;29.87;6.10;;;7.80;99.90;;;;;;5219543;22;20165;-92
2023/02/24 00:33:15;;;;;;;35.33;6.80;;;7.70;99.90;;;;;;5220047;22;20153;-92
2023/02/24 00:35:16;;;;;;;33.73;6.90;;;7.90;99.90;;;;;;5194686;22;20151;-92
2023/02/24 00:37:22;;;;;;;32.93;6.50;;;8.00;99.90;;;;;;5194388;22;20189;-91
2023/02/24 00:39:31;;;;;;;38.73;7.50;;;8.00;99.90;;;;;;5194485;22;20620;-92
2023/02/24 00:41:32;;;;;;;40.63;8.10;;;8.20;99.90;;;;;;5220152;22;20145;-92
2023/02/24 00:43:36;;;;;;;33.03;7.00;;;8.20;99.90;;;;;;5194117;22;20157;-92
2023/02/24 00:45:38;;;;;;;45.37;6.67;;;8.10;99.90;;;;;;5194356;22;20162;-92
2023/02/24 00:47:39;;;;;;;35.67;6.80;;;8.10;99.90;;;;;;5194661;22;20643;-91
2023/02/24 00:49:41;;;;;;;41.47;6.63;;;8.20;99.90;;;;;;5194369;22;20253;-91
2023/02/24 00:51:44;;;;;;;35.43;6.03;;;8.10;99.90;;;;;;5194163;22;20263;-92
2023/02/24 00:53:45;;;;;;;32.40;7.67;;;8.00;99.90;;;;;;5220008;22;20177;-95
2023/02/24 00:55:45;;;;;;;33.87;7.23;;;8.10;99.90;;;;;;5194200;22;20154;-95
2023/02/24 00:57:49;;;;;;;38.03;6.97;;;8.40;99.90;;;;;;5194060;22;20224;-90
2023/02/24 00:59:53;;;;;;;47.93;7.97;;;8.40;99.90;;;;;;5193749;22;20182;-92
2023/02/24 01:01:54;;;;;;;44.83;6.90;;;8.30;99.90;;;;;;5219600;22;20157;-93
2023/02/24 01:03:55;;;;;;;35.93;6.73;;;8.20;99.90;;;;;;5193893;22;20659;-91
2023/02/24 01:06:01;;;;;;;36.60;6.93;;;8.20;99.90;;;;;;5193915;22;20151;-92
2023/02/24 01:08:04;;;;;;;29.50;5.67;;;8.10;99.90;;;;;;5219904;22;20152;-93
2023/02/24 01:10:07;;;;;;;32.87;6.53;;;7.70;99.90;;;;;;5194119;22;20174;-91
2023/02/24 01:14:32;;;;;;;37.10;6.40;;;7.70;99.90;;;;;;5219568;22;20141;-92
2023/02/24 01:16:34;;;;;;;34.87;5.67;;;7.50;99.90;;;;;;5219558;22;20164;-92
2023/02/24 01:18:35;;;;;;;34.53;5.70;;;7.60;99.90;;;;;;5219531;22;20193;-92
2023/02/24 01:20:37;;;;;;;27.10;5.07;;;7.60;99.90;;;;;;5193759;22;20174;-92
2023/02/24 01:22:39;;;;;;;30.10;4.90;;;7.70;99.90;;;;;;5194236;22;20158;-92
2023/02/24 01:24:42;;;;;;;27.67;4.37;;;7.50;99.90;;;;;;5193976;22;20150;-91
2023/02/24 01:26:43;;;;;;;30.53;4.40;;;7.70;99.90;;;;;;5219463;22;20154;-93
2023/02/24 01:28:48;;;;;;;25.47;4.37;;;7.70;99.90;;;;;;5193957;22;20150;-93
2023/02/24 01:30:48;;;;;;;31.37;4.00;;;7.70;99.90;;;;;;5193953;22;20193;-92
2023/02/24 01:32:49;;;;;;;29.83;3.77;;;7.60;99.90;;;;;;5193883;22;20192;-93
2023/02/24 01:34:51;;;;;;;29.20;4.17;;;7.50;99.90;;;;;;5219526;22;20149;-94
2023/02/24 01:36:52;;;;;;;33.57;3.77;;;7.50;99.90;;;;;;5219312;22;20149;-91
2023/02/24 01:38:53;;;;;;;18.83;3.13;;;7.40;99.90;;;;;;5193656;22;20222;-93
2023/02/24 01:41:03;;;;;;;30.47;5.00;;;7.00;99.90;;;;;;5193660;22;20660;-91
2023/02/24 01:43:07;;;;;;;32.50;3.83;;;7.50;99.90;;;;;;5219221;22;20218;-93
2023/02/24 01:45:16;;;;;;;27.33;3.73;;;7.30;99.90;;;;;;5219490;22;20167;-92
2023/02/24 01:47:19;;;;;;;31.80;3.67;;;7.20;99.90;;;;;;5219357;22;20468;-94
2023/02/24 01:49:33;;;;;;;24.63;3.67;;;7.10;99.90;;;;;;5219350;22;20150;-91
2023/02/24 01:51:38;;;;;;;31.53;3.80;;;7.20;99.90;;;;;;5219489;22;20215;-95
2023/02/24 01:53:39;;;;;;;32.10;4.47;;;7.50;99.90;;;;;;5219406;22;20231;-92
2023/02/24 01:55:49;;;;;;;29.03;3.70;;;7.50;99.90;;;;;;5219140;22;20158;-94
2023/02/24 01:57:52;;;;;;;21.17;3.23;;;7.70;99.90;;;;;;5194014;22;20260;-93
2023/02/24 02:00:00;;;;;;;27.83;3.47;;;7.50;99.90;;;;;;5219365;22;20516;-93
2023/02/24 02:02:05;;;;;;;19.63;3.40;;;7.40;99.90;;;;;;5219632;22;20207;-94
2023/02/24 02:04:20;;;;;;;29.27;2.97;;;7.00;99.90;;;;;;5219539;22;20543;-91
2023/02/24 02:06:20;;;;;;;22.60;3.23;;;7.00;99.90;;;;;;5219725;22;20180;-94
2023/02/24 02:08:22;;;;;;;25.17;3.20;;;7.00;99.90;;;;;;5193736;22;20220;-91
2023/02/24 02:10:24;;;;;;;34.17;3.83;;;7.10;99.90;;;;;;5193670;22;20177;-91
2023/02/24 02:12:26;;;;;;;25.60;2.87;;;7.10;99.90;;;;;;5193806;22;20244;-92
2023/02/24 02:14:30;;;;;;;27.53;3.10;;;7.10;99.90;;;;;;5245178;22;20149;-91
2023/02/24 02:17:01;;;;;;;22.60;3.57;;;7.20;99.90;;;;;;5219192;22;20157;-92
2023/02/24 02:19:10;;;;;;;24.63;2.77;;;7.30;99.90;;;;;;5219255;22;20504;-92
2023/02/24 02:21:24;;;;;;;23.87;3.63;;;7.30;99.90;;;;;;5219078;22;20562;-90
2023/02/24 02:23:31;;;;;;;25.80;3.80;;;7.40;99.90;;;;;;5219114;22;20481;-93
2023/02/24 02:25:53;;;;;;;25.90;2.80;;;7.40;99.90;;;;;;5218933;22;20244;-91
2023/02/24 02:28:09;;;;;;;25.10;3.23;;;7.40;99.90;;;;;;5219115;22;20568;-91
2023/02/24 02:30:48;;;;;;;28.43;4.00;;;7.50;99.90;;;;;;5219028;22;20637;-91
2023/02/24 02:33:14;;;;;;;18.20;3.03;;;7.40;99.90;;;;;;5117570;23;20152;-92
2023/02/24 02:35:21;;;;;;;24.83;3.17;;;7.60;99.90;;;;;;5117833;23;20156;-91
2023/02/24 02:37:35;;;;;;;23.07;3.27;;;7.70;99.90;;;;;;5134084;22;20201;-92
2023/02/24 02:39:57;;;;;;;25.23;3.17;;;7.50;99.90;;;;;;5218880;22;20570;-91
2023/02/24 02:42:12;;;;;;;23.83;2.83;;;7.30;99.90;;;;;;5219149;22;20184;-93
2023/02/24 02:44:33;;;;;;;25.77;2.77;;;7.40;99.90;;;;;;5193489;22;20196;-92
2023/02/24 02:46:43;;;;;;;23.87;3.10;;;7.50;99.90;;;;;;5218940;22;20192;-91
2023/02/24 02:48:58;;;;;;;17.17;2.50;;;7.30;99.90;;;;;;5218772;22;20513;-92
2023/02/24 02:51:21;;;;;;;15.27;3.47;;;7.20;99.90;;;;;;5218766;22;20247;-92
2023/02/24 02:53:51;;;;;;;26.23;3.17;;;7.50;99.90;;;;;;5219317;22;20214;-92
2023/02/24 02:56:17;;;;;;;27.00;3.10;;;7.60;99.90;;;;;;5219177;22;20478;-95
2023/02/24 02:58:25;;;;;;;21.90;2.70;;;7.70;99.90;;;;;;5161489;22;20185;-92
2023/02/24 03:00:33;;;;;;;20.90;3.43;;;8.00;99.90;;;;;;5193590;22;20621;-91
2023/02/24 03:02:38;;;;;;;24.37;2.63;;;8.00;99.90;;;;;;5219227;22;20687;-92
2023/02/24 03:04:45;;;;;;;17.20;2.90;;;7.90;99.90;;;;;;5219500;22;20157;-93
2023/02/24 03:06:54;;;;;;;28.97;2.90;;;7.60;99.90;;;;;;5219296;22;20340;-92
2023/02/24 03:09:10;;;;;;;24.33;3.57;;;7.80;99.90;;;;;;5219132;22;20604;-91
2023/02/24 03:11:15;;;;;;;19.87;2.60;;;7.50;99.90;;;;;;5218931;22;20562;-92
2023/02/24 03:13:24;;;;;;;19.20;2.80;;;7.20;99.90;;;;;;5219064;22;20153;-92
2023/02/24 03:15:29;;;;;;;24.00;3.50;;;7.20;99.90;;;;;;5218945;22;20153;-94
2023/02/24 03:17:40;;;;;;;26.83;2.80;;;7.60;99.90;;;;;;5219062;22;20182;-91
2023/02/24 03:19:42;;;;;;;30.53;3.27;;;7.30;99.90;;;;;;5220091;22;20246;-93
2023/02/24 03:21:50;;;;;;;23.17;3.07;;;7.40;99.90;;;;;;5195061;22;20146;-94
2023/02/24 03:23:52;;;;;;;18.70;3.13;;;7.60;99.90;;;;;;5221286;22;20157;-93
2023/02/24 03:26:00;;;;;;;22.40;3.13;;;7.30;99.90;;;;;;5220728;22;20146;-91
2023/02/24 03:28:21;;;;;;;27.87;2.97;;;7.00;99.90;;;;;;5195725;22;20229;-91
2023/02/24 03:30:38;;;;;;;19.47;2.70;;;6.80;99.90;;;;;;5220537;22;20461;-92
2023/02/24 03:32:53;;;;;;;17.03;2.67;;;6.50;99.90;;;;;;5220710;22;20548;-91
2023/02/24 03:35:09;;;;;;;26.27;3.37;;;6.40;99.90;;;;;;5221017;22;20145;-96
2023/02/24 03:37:12;;;;;;;15.60;3.10;;;6.40;99.90;;;;;;5220681;22;20164;-92
2023/02/24 03:39:14;;;;;;;35.17;3.33;;;6.30;99.90;;;;;;5195182;22;20193;-92
2023/02/24 03:41:30;;;;;;;24.13;3.00;;;6.40;99.90;;;;;;5196185;22;20563;-92
2023/02/24 03:43:34;;;;;;;19.63;3.00;;;6.90;99.90;;;;;;5220393;22;20152;-94
2023/02/24 03:45:38;;;;;;;19.37;2.73;;;6.70;99.90;;;;;;5194657;22;20285;-92
2023/02/24 03:47:40;;;;;;;31.43;3.33;;;6.60;99.90;;;;;;5194902;22;20237;-92
2023/02/24 03:49:42;;;;;;;20.63;3.67;;;6.60;99.90;;;;;;5220324;22;20174;-92
2023/02/24 03:52:20;;;;;;;23.77;3.50;;;6.50;99.90;;;;;;5195137;22;20162;-92
2023/02/24 03:54:42;;;;;;;17.27;2.60;;;6.50;99.90;;;;;;5220335;22;20153;-94
2023/02/24 03:56:56;;;;;;;17.97;2.67;;;6.40;99.90;;;;;;5194687;22;20208;-91
2023/02/24 03:59:13;;;;;;;24.50;3.17;;;6.60;99.90;;;;;;5220209;22;20193;-91
2023/02/24 04:01:45;;;;;;;15.70;2.60;;;6.80;99.90;;;;;;5220090;22;20169;-91
2023/02/24 04:04:18;;;;;;;19.67;3.83;;;6.90;99.90;;;;;;5194827;22;20169;-93
2023/02/24 04:06:57;;;;;;;21.45;2.97;;;6.90;99.90;;;;;;5223000;22;20195;-95
2023/02/24 04:09:38;;;;;;;27.13;3.13;;;6.90;99.90;;;;;;5220403;22;20229;-91
2023/02/24 04:11:55;;;;;;;17.57;2.63;;;6.80;99.90;;;;;;5138800;22;20164;-95
2023/02/24 04:14:34;;;;;;;16.43;2.77;;;7.00;99.90;;;;;;5220291;22;20150;-91
2023/02/24 04:16:50;;;;;;;16.20;3.07;;;6.90;99.90;;;;;;5220640;22;20165;-91
2023/02/24 04:18:51;;;;;;;21.53;3.40;;;6.70;99.90;;;;;;5220095;22;20193;-93
2023/02/24 04:20:56;;;;;;;15.87;3.13;;;6.80;99.90;;;;;;5220052;22;20176;-93
2023/02/24 04:23:11;;;;;;;27.27;3.03;;;6.90;99.90;;;;;;5220115;22;20528;-91
2023/02/24 04:25:14;;;;;;;22.60;3.20;;;7.00;99.90;;;;;;5220135;22;20165;-92
2023/02/24 04:27:17;;;;;;;17.37;3.10;;;6.70;99.90;;;;;;5219973;22;20185;-92
2023/02/24 04:29:21;;;;;;;19.00;3.33;;;6.50;99.90;;;;;;5220154;22;20452;-93
2023/02/24 04:31:25;;;;;;;26.03;3.40;;;6.60;99.90;;;;;;5219287;22;20497;-91
2023/02/24 04:33:26;;;;;;;23.33;2.83;;;6.90;99.90;;;;;;5220341;22;20160;-91
2023/02/24 04:35:28;;;;;;;26.20;3.60;;;7.00;99.90;;;;;;5194552;22;20158;-91
2023/02/24 04:37:32;;;;;;;24.83;4.27;;;7.10;99.90;;;;;;5194581;22;20265;-93
2023/02/24 04:39:37;;;;;;;18.60;3.33;;;7.20;99.90;;;;;;5194155;22;20158;-92
2023/02/24 04:41:42;;;;;;;21.43;3.63;;;7.10;99.90;;;;;;5195248;22;20292;-92
2023/02/24 04:43:42;;;;;;;25.73;4.33;;;6.80;99.90;;;;;;5220070;22;20635;-92
2023/02/24 04:45:43;;;;;;;18.97;2.93;;;6.70;99.90;;;;;;5194244;22;20150;-94
2023/02/24 04:47:48;;;;;;;21.30;3.27;;;6.70;99.90;;;;;;5194193;22;20209;-91
2023/02/24 04:49:48;;;;;;;19.23;3.30;;;6.70;99.90;;;;;;5219919;22;20173;-94
2023/02/24 04:51:50;;;;;;;16.13;2.90;;;6.90;99.90;;;;;;5220045;22;20169;-94
2023/02/24 04:53:54;;;;;;;16.60;2.90;;;7.00;99.90;;;;;;5194284;22;20203;-95
2023/02/24 04:55:55;;;;;;;19.33;2.57;;;6.70;99.90;;;;;;5219525;22;20153;-94
2023/02/24 04:57:56;;;;;;;20.07;3.60;;;6.30;99.90;;;;;;5194014;22;20196;-93
2023/02/24 04:59:57;;;;;;;19.33;3.13;;;6.40;99.90;;;;;;5193961;22;20512;-92
2023/02/24 05:02:00;;;;;;;24.53;3.60;;;6.40;99.90;;;;;;5219756;22;20153;-91
2023/02/24 05:04:01;;;;;;;19.83;3.10;;;6.60;99.90;;;;;;5194240;22;20203;-92
2023/02/24 05:06:02;;;;;;;26.17;2.90;;;6.60;99.90;;;;;;5194180;22;20154;-91
2023/02/24 05:08:06;;;;;;;19.30;3.00;;;6.80;99.90;;;;;;5194058;22;20147;-94
2023/02/24 05:10:07;;;;;;;18.17;2.97;;;6.70;99.90;;;;;;5219702;22;20209;-92
2023/02/24 05:12:08;;;;;;;25.03;3.00;;;6.90;99.90;;;;;;5219714;22;20160;-92
2023/02/24 05:14:13;;;;;;;25.63;3.50;;;7.10;99.90;;;;;;5194141;22;20151;-92
2023/02/24 05:16:16;;;;;;;24.83;3.77;;;7.20;99.90;;;;;;5219613;22;20149;-92
2023/02/24 05:18:17;;;;;;;17.33;2.77;;;6.90;99.90;;;;;;5219482;22;20197;-92
2023/02/24 05:22:51;;;;;;;28.30;3.73;;;6.50;99.90;;;;;;5152458;22;20249;-92
2023/02/24 05:24:53;;;;;;;22.77;3.83;;;6.60;99.90;;;;;;5193993;22;20150;-92
2023/02/24 05:26:58;;;;;;;34.67;4.30;;;6.70;99.90;;;;;;5194011;22;20161;-93
2023/02/24 05:29:00;;;;;;;20.83;3.37;;;6.80;99.90;;;;;;5219377;22;20153;-95
2023/02/24 05:31:07;;;;;;;28.03;3.57;;;6.80;99.90;;;;;;5193575;22;20170;-93
2023/02/24 05:33:07;;;;;;;23.87;3.73;;;6.90;99.90;;;;;;5193856;22;20245;-91
2023/02/24 05:35:09;;;;;;;23.57;3.60;;;6.90;99.90;;;;;;5219270;22;20150;-92
2023/02/24 05:37:10;;;;;;;22.13;3.43;;;6.60;99.90;;;;;;5219499;22;20232;-91
2023/02/24 05:39:17;;;;;;;23.93;3.37;;;6.40;99.90;;;;;;5219369;22;20508;-94
2023/02/24 05:41:18;;;;;;;16.97;3.30;;;6.40;99.90;;;;;;5193791;22;20145;-93
2023/02/24 05:43:19;;;;;;;18.93;3.27;;;6.40;99.90;;;;;;5219393;22;20210;-92
2023/02/24 05:45:19;;;;;;;24.67;3.00;;;6.50;99.90;;;;;;5193815;22;20154;-91
2023/02/24 05:47:22;;;;;;;20.20;3.27;;;6.40;99.90;;;;;;5219352;22;20161;-91
2023/02/24 05:49:28;;;;;;;19.90;2.90;;;6.30;99.90;;;;;;5219548;22;20161;-91
2023/02/24 05:51:37;;;;;;;19.83;2.50;;;5.80;99.90;;;;;;5219237;22;20195;-94
2023/02/24 05:53:41;;;;;;;16.10;2.97;;;5.60;99.90;;;;;;5219338;22;20153;-94
2023/02/24 05:55:42;;;;;;;20.67;2.53;;;5.40;99.90;;;;;;5219239;22;20153;-93
2023/02/24 05:57:43;;;;;;;15.83;2.37;;;5.30;99.90;;;;;;5193765;22;20185;-93
2023/02/24 05:59:43;;;;;;;19.17;2.83;;;5.50;99.90;;;;;;5193556;22;20205;-91
2023/02/24 06:01:44;;;;;;;30.27;2.90;;;5.40;99.90;;;;;;5193764;22;20150;-91
2023/02/24 06:03:46;;;;;;;21.63;2.50;;;5.30;99.90;;;;;;5193914;22;20158;-92
2023/02/24 06:05:53;;;;;;;21.73;2.60;;;5.30;99.90;;;;;;5219288;22;20153;-93
2023/02/24 06:08:05;;;;;;;15.03;2.47;;;5.50;99.90;;;;;;5219381;22;20192;-92
2023/02/24 06:10:09;;;;;;;19.83;2.87;;;5.80;99.90;;;;;;5219076;22;20166;-92
2023/02/24 06:12:13;;;;;;;20.23;2.73;;;6.00;99.90;;;;;;5219431;22;20169;-91
2023/02/24 06:14:14;;;;;;;19.53;2.80;;;6.10;99.90;;;;;;5219369;22;20233;-93
2023/02/24 06:16:17;;;;;;;15.77;2.77;;;6.00;99.90;;;;;;5219369;22;20192;-93
2023/02/24 06:18:19;;;;;;;26.97;3.40;;;6.00;99.90;;;;;;5219754;22;20208;-94
2023/02/24 06:20:25;;;;;;;13.63;2.47;;;5.90;99.90;;;;;;5219478;22;20173;-93
2023/02/24 06:22:26;;;;;;;15.27;2.73;;;5.70;99.90;;;;;;5219354;22;20146;-93
2023/02/24 06:24:28;;;;;;;18.50;2.37;;;5.60;99.90;;;;;;5218824;22;20188;-91
2023/02/24 06:26:32;;;;;;;15.20;2.50;;;5.60;99.90;;;;;;5219251;22;20146;-92
2023/02/24 06:28:33;;;;;;;12.40;2.53;;;5.70;99.90;;;;;;5193610;22;20154;-92
2023/02/24 06:30:33;;;;;;;14.43;2.20;;;5.70;99.90;;;;;;5193371;22;20175;-93
2023/02/24 06:32:34;;;;;;;20.43;2.73;;;5.80;99.90;;;;;;5193423;22;20153;-93
2023/02/24 06:34:37;;;;;;;19.60;2.60;;;5.80;99.90;;;;;;5219324;22;20157;-92
2023/02/24 06:36:38;;;;;;;21.90;2.70;;;5.90;99.90;;;;;;5219241;22;20179;-93
2023/02/24 06:38:39;;;;;;;18.27;3.00;;;6.10;99.90;;;;;;5193480;22;20196;-94
2023/02/24 06:40:41;;;;;;;19.93;3.17;;;6.10;99.90;;;;;;5193381;22;20174;-94
2023/02/24 06:42:54;;;;;;;17.20;3.50;;;6.10;99.90;;;;;;5219038;22;20583;-92
2023/02/24 06:44:55;;;;;;;20.20;3.27;;;6.10;99.90;;;;;;5218653;22;20149;-92
2023/02/24 06:46:56;;;;;;;24.17;3.00;;;6.10;99.90;;;;;;5193356;22;20619;-92
2023/02/24 06:48:57;;;;;;;16.43;2.83;;;6.10;99.90;;;;;;5193342;22;20233;-93
2023/02/24 06:51:02;;;;;;;18.27;3.40;;;6.20;99.90;;;;;;5193125;22;20197;-93
2023/02/24 06:53:02;;;;;;;26.73;4.63;;;6.30;99.90;;;;;;5193326;22;20593;-93
2023/02/24 06:55:04;;;;;;;25.37;4.53;;;6.30;99.90;;;;;;5193336;22;20150;-92
2023/02/24 06:57:08;;;;;;;17.27;3.63;;;6.30;99.90;;;;;;5193473;22;20150;-92
2023/02/24 06:59:11;;;;;;;16.77;3.23;;;6.30;99.90;;;;;;5193534;22;20631;-92
2023/02/24 07:01:15;;;;;;;18.27;3.33;;;6.20;99.90;;;;;;5193107;22;20174;-93
2023/02/24 07:03:16;;;;;;;21.53;3.17;;;6.20;99.90;;;;;;5218983;22;20156;-92
2023/02/24 07:05:17;;;;;;;21.47;3.67;;;6.10;99.90;;;;;;5219117;22;20237;-93
2023/02/24 07:07:18;;;;;;;23.43;11.23;;;5.90;99.90;;;;;;5193228;22;20155;-92
2023/02/24 07:09:21;;;;;;;80.07;42.70;;;5.80;99.90;;;;;;5193209;22;20160;-92
2023/02/24 07:11:23;;;;;;;29.83;13.80;;;5.70;99.90;;;;;;5193367;22;20202;-92
2023/02/24 07:13:27;;;;;;;20.80;8.63;;;5.70;99.90;;;;;;5193340;22;20150;-92
2023/02/24 07:15:30;;;;;;;19.07;2.83;;;5.70;99.90;;;;;;5193264;22;20153;-92
2023/02/24 07:17:31;;;;;;;15.70;2.67;;;5.80;99.90;;;;;;5193645;22;20236;-93
2023/02/24 07:19:32;;;;;;;20.70;2.70;;;6.00;99.90;;;;;;5193553;22;20150;-93
2023/02/24 07:21:38;;;;;;;11.10;2.97;;;6.00;99.90;;;;;;5193557;22;20151;-92
2023/02/24 07:23:40;;;;;;;18.90;2.67;;;6.10;99.90;;;;;;5193346;22;20182;-92
2023/02/24 07:25:45;;;;;;;24.33;3.40;;;6.10;99.90;;;;;;5193470;22;20232;-92
2023/02/24 07:27:46;;;;;;;19.93;2.70;;;6.10;99.90;;;;;;5218916;22;20157;-91
2023/02/24 07:29:50;;;;;;;16.93;5.10;;;6.20;99.90;;;;;;5193188;22;20202;-93
2023/02/24 07:31:53;;;;;;;24.93;6.33;;;6.20;99.90;;;;;;5193190;22;20624;-92
2023/02/24 07:34:00;;;;;;;25.23;6.43;;;6.10;99.90;;;;;;5193152;22;20161;-93
2023/02/24 07:36:07;;;;;;;19.13;4.47;;;6.00;99.90;;;;;;5218732;22;20595;-92
2023/02/24 07:38:08;;;;;;;19.17;3.77;;;5.90;99.90;;;;;;5218506;22;20640;-92
2023/02/24 07:40:09;;;;;;;17.90;5.07;;;5.80;99.90;;;;;;5193201;22;20200;-94
2023/02/24 07:42:13;;;;;;;20.50;6.30;;;5.60;99.90;;;;;;5193113;22;20647;-93
2023/02/24 07:44:19;;;;;;;22.47;5.60;;;5.60;99.90;;;;;;5219590;22;20469;-93
2023/02/24 07:46:26;;;;;;;23.60;5.53;;;5.60;99.90;;;;;;5218709;22;20158;-92
2023/02/24 07:48:27;;;;;;;23.13;6.23;;;5.70;99.90;;;;;;5218837;22;20177;-93
2023/02/24 07:50:31;;;;;;;19.53;6.47;;;5.90;99.90;;;;;;5193393;22;20255;-93
2023/02/24 07:52:32;;;;;;;22.00;7.03;;;6.00;99.90;;;;;;5193038;22;20165;-93
2023/02/24 07:54:33;;;;;;;28.30;6.37;;;6.20;99.90;;;;;;5193140;22;20157;-92
2023/02/24 07:56:36;;;;;;;12.40;2.53;;;6.50;99.90;;;;;;5193337;22;20719;-93
2023/02/24 07:58:38;;;;;;;18.93;3.10;;;6.70;99.90;;;;;;5192915;22;20192;-93
2023/02/24 08:00:58;;;;;;;15.50;2.67;;;6.90;99.90;;;;;;5192663;22;20225;-94
2023/02/24 08:02:59;;;;;;;16.30;3.73;;;7.00;99.90;;;;;;5193168;22;20157;-93
2023/02/24 08:05:01;;;;;;;33.83;13.20;;;7.20;99.90;;;;;;5193689;22;20147;-93
2023/02/24 08:07:03;;;;;;;26.17;11.50;;;7.00;99.90;;;;;;5195031;22;20224;-94
2023/02/24 08:09:19;;;;;;;28.87;16.17;;;6.60;99.90;;;;;;5194640;22;20605;-93
2023/02/24 08:11:23;;;;;;;13.83;4.63;;;6.60;99.90;;;;;;5194490;22;20623;-92
2023/02/24 08:13:24;;;;;;;20.73;8.40;;;6.60;99.90;;;;;;5194439;22;20205;-92
2023/02/24 08:15:32;;;;;;;24.87;4.40;;;6.70;99.90;;;;;;5219977;22;20592;-93
2023/02/24 08:17:34;;;;;;;13.90;2.80;;;6.90;99.90;;;;;;5194664;22;20192;-92
2023/02/24 08:19:41;;;;;;;19.50;2.93;;;7.00;99.90;;;;;;5220087;22;20177;-94
2023/02/24 08:21:49;;;;;;;14.70;2.70;;;7.20;99.90;;;;;;5194899;22;20158;-93
2023/02/24 08:23:51;;;;;;;12.10;2.73;;;7.20;99.90;;;;;;5194832;22;20165;-92
2023/02/24 08:25:52;;;;;;;24.27;2.90;;;7.30;99.90;;;;;;5194642;22;20184;-94
2023/02/24 08:27:56;;;;;;;21.23;2.93;;;7.60;99.90;;;;;;5194673;22;20158;-92
2023/02/24 08:29:58;;;;;;;16.90;3.23;;;7.90;99.90;;;;;;5194142;22;20185;-94
2023/02/24 08:31:59;;;;;;;23.07;3.20;;;8.10;99.90;;;;;;5220075;22;20232;-92
2023/02/24 08:34:00;;;;;;;16.58;3.13;;;7.90;99.90;;;;;;5219832;22;20628;-93
2023/02/24 08:36:00;;;;;;;17.63;3.20;;;8.00;99.90;;;;;;5194866;22;20214;-94
2023/02/24 08:38:08;;;;;;;20.73;2.83;;;7.90;99.90;;;;;;5219822;22;20220;-95
2023/02/24 08:42:33;;;;;;;23.37;3.47;;;8.00;99.90;;;;;;5219982;22;20515;-92
2023/02/24 08:44:36;;;;;;;25.85;2.90;;;8.00;99.90;;;;;;5220253;22;20652;-93
2023/02/24 08:46:38;;;;;;;32.53;6.33;;;8.30;99.90;;;;;;5194079;22;20153;-92
2023/02/24 08:48:45;;;;;;;147.38;58.15;;;8.40;99.90;;;;;;5194267;22;20208;-92
2023/02/24 08:50:47;;;;;;;68.38;31.90;;;8.70;99.90;;;;;;5219630;22;20169;-93
2023/02/24 08:52:48;;;;;;;76.72;29.15;;;9.20;99.90;;;;;;5194220;22;20166;-93
2023/02/24 08:54:49;;;;;;;227.45;109.85;;;9.60;99.90;;;;;;5219756;22;20223;-93
2023/02/24 08:56:54;;;;;;;44.65;16.10;;;9.70;99.90;;;;;;5194391;22;20237;-93
2023/02/24 08:59:03;;;;;;;28.38;12.20;;;9.90;99.90;;;;;;5194302;22;20193;-95
2023/02/24 09:01:04;;;;;;;13.43;2.58;;;9.80;99.90;;;;;;5193925;22;20173;-94
2023/02/24 09:03:07;;;;;;;40.35;15.70;;;10.20;99.90;;;;;;5219600;22;20154;-93
2023/02/24 09:05:11;;;;;;;10.50;1.92;;;10.20;99.90;;;;;;5219619;22;20146;-93
2023/02/24 09:07:20;;;;;;;8.10;2.35;;;9.30;99.90;;;;;;5219843;22;20188;-94
2023/02/24 09:09:21;;;;;;;20.40;2.30;;;8.70;99.90;;;;;;5219785;22;20149;-92
2023/02/24 09:11:22;;;;;;;11.50;2.15;;;8.90;99.90;;;;;;5219823;22;20203;-92
2023/02/24 09:13:31;;;;;;;18.52;4.10;;;9.00;99.90;;;;;;5193941;22;20181;-92
2023/02/24 09:15:40;;;;;;;13.40;1.88;;;9.10;99.90;;;;;;5193632;22;20150;-92
2023/02/24 09:23:51;;;;;;;13.95;2.47;;;9.60;99.90;;;;;;5220569;22;20141;-93
2023/02/24 09:25:53;;;;;;;15.70;5.78;;;9.50;99.90;;;;;;5194283;22;20168;-93
2023/02/24 09:28:08;;;;;;;18.23;3.20;;;9.00;99.90;;;;;;5194196;22;20150;-93
2023/02/24 09:30:34;;;;;;;11.50;2.75;;;9.10;99.90;;;;;;5193988;22;20174;-93
2023/02/24 09:32:33;;;;;;;12.15;2.38;;;9.30;99.90;;;;;;5245262;22;20153;-91
2023/02/24 09:34:36;;;;;;;22.05;8.60;;;9.40;99.90;;;;;;5219323;22;20149;-95
2023/02/24 09:36:43;;;;;;;13.48;2.30;;;9.70;99.90;;;;;;5219029;22;20161;-95
2023/02/24 09:41:05;;;;;;;16.30;2.88;;;9.20;99.90;;;;;;5219418;22;20627;-92
2023/02/24 09:43:16;;;;;;;12.93;2.60;;;9.40;99.90;;;;;;5219303;22;20156;-92
2023/02/24 09:45:44;;;;;;;11.35;2.08;;;9.30;99.90;;;;;;5219509;22;20161;-93
2023/02/24 09:50:12;;;;;;;17.02;4.15;;;9.80;99.90;;;;;;5219444;22;20169;-92
2023/02/24 09:52:17;;;;;;;18.23;2.50;;;9.90;99.90;;;;;;5219249;22;20175;-92
2023/02/24 09:54:23;;;;;;;14.05;2.35;;;10.10;99.90;;;;;;5219293;22;20149;-92
2023/02/24 09:56:31;;;;;;;13.40;3.30;;;9.90;99.90;;;;;;5219418;22;20149;-93
2023/02/24 09:58:58;;;;;;;14.73;2.50;;;9.70;99.90;;;;;;5219326;22;20189;-92
2023/02/24 10:01:41;;;;;;;17.15;2.58;;;9.20;99.90;;;;;;5219285;22;20628;-93
2023/02/24 10:03:47;;;;;;;16.45;3.35;;;9.30;99.90;;;;;;5219374;22;20157;-93
2023/02/24 10:06:10;;;;;;;15.93;4.22;;;9.20;99.90;;;;;;5219151;22;20169;-93
2023/02/24 10:08:24;;;;;;;13.75;2.47;;;9.10;99.90;;;;;;5219433;22;20154;-92
2023/02/24 10:10:28;;;;;;;15.50;2.50;;;9.40;99.90;;;;;;5219284;22;20177;-92
2023/02/24 10:12:38;;;;;;;23.08;10.43;;;9.30;99.90;;;;;;5219233;22;20526;-93
2023/02/24 10:14:45;;;;;;;15.07;2.72;;;9.20;99.90;;;;;;5219262;22;20161;-94
2023/02/24 10:17:21;;;;;;;12.85;2.88;;;9.10;99.90;;;;;;5219287;22;20188;-92
2023/02/24 10:19:23;;;;;;;12.15;2.50;;;8.90;99.90;;;;;;5219067;22;20188;-92
2023/02/24 10:21:48;;;;;;;13.35;2.33;;;8.70;99.90;;;;;;5219466;22;20492;-94
2023/02/24 10:24:04;;;;;;;10.10;2.47;;;8.70;99.90;;;;;;5219400;22;20244;-94
2023/02/24 10:26:29;;;;;;;18.33;2.27;;;8.80;99.90;;;;;;5219307;22;20253;-92
2023/02/24 10:28:45;;;;;;;19.53;3.00;;;8.70;99.90;;;;;;5218659;22;20156;-91
2023/02/24 10:31:00;;;;;;;19.40;2.63;;;8.60;99.90;;;;;;5218767;22;20209;-94
2023/02/24 10:33:04;;;;;;;13.83;2.50;;;8.70;99.90;;;;;;5219118;22;20149;-92
2023/02/24 10:35:11;;;;;;;13.37;2.60;;;8.50;99.90;;;;;;5219178;22;20157;-93
2023/02/24 10:37:18;;;;;;;13.83;4.30;;;8.40;99.90;;;;;;5219090;22;20169;-91
2023/02/24 10:39:32;;;;;;;20.90;3.90;;;8.60;99.90;;;;;;5219060;22;20165;-92
2023/02/24 10:41:44;;;;;;;17.07;3.30;;;8.50;99.90;;;;;;5219419;22;20150;-93
2023/02/24 10:43:55;;;;;;;18.00;3.07;;;8.80;99.90;;;;;;5219200;22;20195;-92
2023/02/24 10:46:15;;;;;;;14.50;2.80;;;8.70;99.90;;;;;;5219051;22;20149;-93
2023/02/24 10:48:23;;;;;;;11.83;2.67;;;8.60;99.90;;;;;;5219120;22;20161;-92
2023/02/24 10:50:43;;;;;;;12.57;2.67;;;8.70;99.90;;;;;;5218608;22;20218;-93
2023/02/24 10:55:07;;;;;;;11.97;1.60;;;9.00;99.90;;;;;;5219145;22;20173;-94
2023/02/24 10:57:14;;;;;;;21.03;2.93;;;8.90;99.90;;;;;;5193690;22;20184;-93
2023/02/24 11:00:19;;;;;;;12.73;2.73;;;8.40;99.90;;;;;;5219281;22;20221;-92
2023/02/24 11:01:57;;;;;;;14.60;3.00;;;8.50;99.90;;;;;;5202665;22;20214;-92
2023/02/24 11:04:11;;;;;;;25.70;6.27;;;8.80;99.90;;;;;;5193470;22;20153;-92
2023/02/24 11:06:41;;;;;;;18.88;3.10;;;8.80;99.90;;;;;;5218720;22;20149;-92
2023/02/24 11:11:05;;;;;;;72.15;23.90;;;9.00;99.90;;;;;;5218716;22;20197;-91
2023/02/24 11:18:17;;;;;;;9.50;2.72;;;9.40;99.90;;;;;;5218450;22;20185;-92
2023/02/24 11:20:32;;;;;;;16.50;2.65;;;9.90;99.90;;;;;;5218601;22;20219;-92
2023/02/24 11:22:38;;;;;;;15.45;4.13;;;9.90;99.90;;;;;;5218797;22;20544;-92
2023/02/24 11:24:39;;;;;;;12.20;3.17;;;9.60;99.90;;;;;;5218979;22;20149;-93
2023/02/24 11:26:40;;;;;;;12.35;2.63;;;9.80;99.90;;;;;;5193534;22;20150;-93